Manor, Georgia
Current Conditions -  °F | °C
As of 7:35 PM on Monday 24 Nov 2014 (Local Time) from KHOE Reporting Station
Light Rain Light Rain  
Wind Chill: 66°   Ceiling: 6000
Heat Index: 66°   Visibility: 4mi
Dew Point: 64°   Wind: 3mph
Humidity: 94%   Direction: 240°WSW
Pressure: 29.98"   Gusts: NA
Location:  31.1°N, 82.57°W
Report Text: KHOE 250035Z AUTO 24003KT 4SM -RA OVC060 19/18 A2998 RMK AO2 LTG DSNT W
Loading
Personal Weather Stations






























Interactive Weather Map New forecast layout! Learn more

10-Day Weather Forecast

Advertisements
Track Severe Weather on mobile